Banner, Wyoming
Current Conditions -  °F | °C
As of 9:53 AM on Sunday 21 Dec 2014 (Local Time) from KSHR Reporting Station
Overcast Overcast  
Wind Chill: 34°   Ceiling: 7500
Heat Index: 38°   Visibility: 10mi
Dew Point: 25°   Wind: 5mph
Humidity: 60%   Direction: 200°SSW
Pressure: 29.44"   Gusts: NA
Location:  44.6°N, 106.87°W
Report Text: KSHR 211653Z AUTO 20004KT 10SM BKN075 OVC090 03/M04 A2944 RMK AO2 SLP998 T00331039
Loading
Personal Weather Stations






























Interactive Weather Map New forecast layout! Learn more

10-Day Weather Forecast

Advertisements
Track Severe Weather on mobile